Time;durP1;ratioP1;P1;durP2;ratioP2;P2;SDS_P1;SDS_P2;PMS_P1;PMS_P2;Temp;Humidity;BMP_temperature;BMP_pressure;BME280_temperature;BME280_humidity;BME280_pressure;Samples;Min_cycle;Max_cycle;Signal;HPM_P1;HPM_P2
2023/05/23 00:00:21;;;;;;;21.17;5.80;;;;;;;18.66;58.53;100969.31;5035525;28;20406;-82
2023/05/23 00:02:47;;;;;;;21.88;6.78;;;;;;;18.65;58.60;100975.72;5030022;28;20752;-82
2023/05/23 00:05:14;;;;;;;29.42;6.45;;;;;;;18.64;58.60;100967.91;5048565;28;20894;-82
2023/05/23 00:07:40;;;;;;;19.42;5.85;;;;;;;18.67;58.40;100965.63;5047766;28;20383;-82
2023/05/23 00:10:06;;;;;;;23.92;6.47;;;;;;;18.77;58.01;100964.31;5049180;28;20580;-82
2023/05/23 00:12:32;;;;;;;19.73;5.47;;;;;;;18.84;57.87;100965.91;5032229;28;20471;-82
2023/05/23 00:14:58;;;;;;;25.02;5.70;;;;;;;18.76;57.93;100955.41;5040566;28;20459;-83
2023/05/23 00:17:24;;;;;;;17.35;5.80;;;;;;;18.78;57.93;100961.41;5030910;28;20404;-82
2023/05/23 00:19:50;;;;;;;20.13;5.80;;;;;;;18.84;57.53;100959.72;5028823;28;20392;-82
2023/05/23 00:22:16;;;;;;;26.23;6.18;;;;;;;18.90;57.45;100961.53;5043526;28;20391;-82
2023/05/23 00:24:42;;;;;;;19.45;5.82;;;;;;;18.91;57.36;100955.94;5048965;28;20480;-83
2023/05/23 00:27:08;;;;;;;18.85;5.95;;;;;;;18.89;57.29;100957.22;5047354;28;20394;-82
2023/05/23 00:29:33;;;;;;;21.30;6.40;;;;;;;18.90;57.42;100959.66;5041702;28;20388;-82
2023/05/23 00:31:59;;;;;;;21.27;5.77;;;;;;;18.91;57.47;100963.19;5020678;28;20399;-83
2023/05/23 00:34:24;;;;;;;20.50;6.30;;;;;;;18.87;57.52;100961.97;5034619;28;20395;-83
2023/05/23 00:36:50;;;;;;;21.33;7.53;;;;;;;18.76;58.21;100962.63;5034327;28;20406;-83
2023/05/23 00:39:18;;;;;;;24.88;8.38;;;;;;;18.65;58.48;100948.06;5034584;28;20412;-82
2023/05/23 00:41:51;;;;;;;25.88;8.93;;;;;;;18.66;58.58;100950.53;5035482;28;20394;-82
2023/05/23 00:44:18;;;;;;;22.58;7.90;;;;;;;18.75;58.38;100948.41;5040217;28;20388;-83
2023/05/23 00:46:49;;;;;;;27.42;9.05;;;;;;;18.65;58.73;100948.06;5041246;28;20593;-84
2023/05/23 00:49:18;;;;;;;23.52;8.57;;;;;;;18.57;58.79;100937.59;5032266;28;20426;-83
2023/05/23 00:51:45;;;;;;;25.02;8.13;;;;;;;18.65;58.56;100942.69;5028969;28;20404;-83
2023/05/23 00:54:11;;;;;;;23.75;8.25;;;;;;;18.60;58.93;100951.41;5022436;28;20410;-83
2023/05/23 00:56:37;;;;;;;22.63;8.07;;;;;;;18.67;58.61;100956.72;5020193;28;20868;-83
2023/05/23 00:59:04;;;;;;;28.33;8.80;;;;;;;18.65;58.66;100956.94;5023741;28;20386;-83
2023/05/23 01:01:29;;;;;;;27.35;8.45;;;;;;;18.59;59.20;100967.72;5038926;28;20493;-83
2023/05/23 01:03:55;;;;;;;26.67;9.05;;;;;;;18.57;59.27;100973.31;5041605;28;20398;-83
2023/05/23 01:06:21;;;;;;;27.77;9.43;;;;;;;18.29;60.56;100992.47;5041148;28;20932;-83
2023/05/23 01:08:46;;;;;;;26.02;8.90;;;;;;;17.95;61.88;100987.25;5038899;28;20477;-83
2023/05/23 01:11:31;;;;;;;27.42;8.05;;;;;;;18.03;61.50;100971.97;5038495;28;20460;-84
2023/05/23 01:14:03;;;;;;;23.85;8.35;;;;;;;18.06;61.34;100984.94;5038093;28;20883;-82
2023/05/23 01:16:41;;;;;;;22.05;7.13;;;;;;;18.00;61.79;100981.25;5036259;28;20401;-83
2023/05/23 01:19:16;;;;;;;24.27;7.53;;;;;;;18.06;61.62;100968.84;5037821;28;20731;-83
2023/05/23 01:21:45;;;;;;;20.92;7.10;;;;;;;18.19;61.33;100984.06;5019793;28;20375;-83
2023/05/23 01:24:20;;;;;;;22.88;7.40;;;;;;;18.19;61.11;100966.09;5018350;28;20423;-82
2023/05/23 01:26:51;;;;;;;24.42;7.70;;;;;;;18.21;61.16;100980.13;5018647;28;20415;-82
2023/05/23 01:29:48;;;;;;;24.42;7.43;;;;;;;18.23;60.78;100964.63;5021501;28;20867;-81
2023/05/23 01:32:15;;;;;;;25.42;6.95;;;;;;;18.28;60.68;100970.19;5014219;28;20438;-81
2023/05/23 01:34:41;;;;;;;20.13;7.27;;;;;;;18.25;60.50;100973.28;5014928;28;20376;-81
2023/05/23 01:37:09;;;;;;;19.45;7.07;;;;;;;18.24;60.45;100968.13;5015472;28;20376;-82
2023/05/23 01:39:35;;;;;;;23.42;7.65;;;;;;;18.35;60.17;100967.47;5023428;28;20456;-82
2023/05/23 01:42:01;;;;;;;23.83;7.32;;;;;;;18.40;60.01;100961.44;5034177;28;20385;-82
2023/05/23 01:44:27;;;;;;;17.65;6.85;;;;;;;18.28;60.00;100951.41;5033275;28;20387;-82
2023/05/23 01:46:52;;;;;;;24.30;7.60;;;;;;;18.22;60.25;100954.94;5049676;28;20438;-81
2023/05/23 01:49:21;;;;;;;20.80;7.17;;;;;;;18.20;60.43;100961.56;5029981;28;20415;-82
2023/05/23 01:51:47;;;;;;;25.17;7.90;;;;;;;18.21;60.42;100960.53;5018872;28;20411;-83
2023/05/23 01:54:15;;;;;;;25.10;7.00;;;;;;;18.18;60.51;100956.41;5016649;28;20403;-83
2023/05/23 01:56:41;;;;;;;24.83;7.18;;;;;;;18.19;60.32;100951.88;5031028;28;20376;-84
2023/05/23 01:59:07;;;;;;;28.63;7.47;;;;;;;18.18;60.44;100955.59;5016399;28;20403;-83
2023/05/23 02:01:33;;;;;;;20.88;6.75;;;;;;;18.16;60.15;100955.78;5026327;28;20512;-83
2023/05/23 02:03:59;;;;;;;18.27;6.13;;;;;;;18.10;60.22;100954.78;5031866;28;20421;-83
2023/05/23 02:06:24;;;;;;;22.33;5.97;;;;;;;17.83;60.29;100966.66;5035235;28;20431;-82
2023/05/23 02:08:50;;;;;;;16.97;5.20;;;;;;;17.63;60.46;100962.16;5035136;28;20398;-83
2023/05/23 02:11:15;;;;;;;19.03;5.23;;;;;;;17.54;60.46;100969.59;5046147;28;20382;-83
2023/05/23 02:13:41;;;;;;;21.97;5.73;;;;;;;17.42;60.36;100973.13;5036984;28;20424;-82
2023/05/23 02:16:06;;;;;;;19.92;5.05;;;;;;;17.29;60.51;100974.81;5028766;28;20395;-83
2023/05/23 02:18:32;;;;;;;17.27;4.90;;;;;;;17.27;60.48;100970.66;5013602;28;20734;-82
2023/05/23 02:20:58;;;;;;;17.10;4.97;;;;;;;17.24;60.44;100976.47;5013515;28;20427;-81
2023/05/23 02:23:23;;;;;;;17.27;5.10;;;;;;;17.18;60.48;100978.94;5012481;28;20410;-82
2023/05/23 02:25:49;;;;;;;16.97;4.90;;;;;;;17.20;60.45;100978.72;5029020;28;20442;-81
2023/05/23 02:28:14;;;;;;;20.15;5.20;;;;;;;17.22;60.19;100973.16;5033695;28;20378;-81
2023/05/23 02:30:40;;;;;;;18.53;5.10;;;;;;;17.21;60.20;100975.00;5032367;28;20406;-82
2023/05/23 02:33:06;;;;;;;20.50;5.70;;;;;;;17.16;60.46;100977.47;5019759;28;20409;-83
2023/05/23 02:35:32;;;;;;;19.45;5.75;;;;;;;17.24;60.26;100979.97;5017611;28;20455;-83
2023/05/23 02:37:58;;;;;;;18.73;5.45;;;;;;;17.25;60.03;100973.56;5019747;28;20481;-82
2023/05/23 02:40:23;;;;;;;22.83;5.68;;;;;;;17.29;59.83;100974.00;5013565;28;20402;-82
2023/05/23 02:42:50;;;;;;;20.97;5.83;;;;;;;17.28;59.94;100980.38;5012738;28;20470;-82
2023/05/23 02:45:17;;;;;;;16.75;5.18;;;;;;;17.16;60.03;100974.78;5015699;28;20408;-82
2023/05/23 02:47:42;;;;;;;21.70;5.97;;;;;;;17.11;60.22;100980.78;5027756;28;20406;-80
2023/05/23 02:50:08;;;;;;;22.70;5.73;;;;;;;17.08;60.27;100983.06;5020709;28;20416;-81
2023/05/23 02:52:34;;;;;;;19.33;5.10;;;;;;;16.99;60.73;100977.06;5019398;28;20459;-81
2023/05/23 02:54:59;;;;;;;18.98;5.22;;;;;;;17.01;60.55;100975.00;5028949;28;20382;-83
2023/05/23 02:57:25;;;;;;;19.07;5.10;;;;;;;17.10;60.46;100973.78;5018493;28;20445;-83
2023/05/23 02:59:50;;;;;;;19.55;5.47;;;;;;;17.05;60.36;100970.91;5035465;28;20382;-82
2023/05/23 03:02:16;;;;;;;18.87;5.37;;;;;;;17.04;60.30;100984.50;5019678;28;20764;-81
2023/05/23 03:04:41;;;;;;;20.73;5.50;;;;;;;17.02;60.39;100981.22;5029590;28;20527;-82
2023/05/23 03:07:08;;;;;;;14.47;4.93;;;;;;;16.98;60.58;100976.25;5029932;28;20451;-82
2023/05/23 03:09:34;;;;;;;17.08;5.28;;;;;;;17.00;60.50;100984.09;5018362;28;20408;-82
2023/05/23 03:12:00;;;;;;;22.05;5.88;;;;;;;16.84;61.04;100984.50;5018360;28;20400;-82
2023/05/23 03:14:25;;;;;;;19.60;5.60;;;;;;;16.79;60.86;100988.56;5025584;28;20422;-86
2023/05/23 03:16:51;;;;;;;22.83;6.00;;;;;;;16.75;61.33;100989.19;5018984;28;20474;-81
2023/05/23 03:19:16;;;;;;;20.87;5.23;;;;;;;16.78;61.27;100997.66;5021116;28;20386;-82
2023/05/23 03:21:43;;;;;;;22.50;5.38;;;;;;;16.73;61.48;100993.94;5017018;28;20462;-81
2023/05/23 03:24:08;;;;;;;16.48;5.43;;;;;;;16.72;61.27;100987.72;5016484;28;20397;-82
2023/05/23 03:26:33;;;;;;;23.10;5.55;;;;;;;16.69;61.41;100982.81;5021903;28;20791;-82
2023/05/23 03:28:59;;;;;;;18.27;5.40;;;;;;;16.77;61.26;100987.94;5018748;28;20840;-82
2023/05/23 03:31:25;;;;;;;21.85;5.75;;;;;;;16.73;61.16;100984.03;5020777;28;20394;-81
2023/05/23 03:33:50;;;;;;;20.13;5.23;;;;;;;16.93;60.89;100983.28;5019079;28;20471;-82
2023/05/23 03:36:15;;;;;;;18.83;5.47;;;;;;;17.00;60.50;100976.88;5025449;28;20392;-82
2023/05/23 03:38:41;;;;;;;21.23;5.47;;;;;;;17.00;60.57;100979.56;5022013;28;20410;-82
2023/05/23 03:41:06;;;;;;;16.52;5.10;;;;;;;16.94;60.70;100976.88;5022770;28;20396;-81
2023/05/23 03:43:32;;;;;;;24.10;5.83;;;;;;;17.04;60.69;100993.38;5017631;28;20423;-81
2023/05/23 03:45:58;;;;;;;19.10;5.15;;;;;;;17.13;60.34;100986.75;5023007;28;20519;-82
2023/05/23 03:48:23;;;;;;;13.90;4.97;;;;;;;17.22;59.95;100981.22;5022802;28;20459;-83
2023/05/23 03:50:49;;;;;;;20.37;5.60;;;;;;;17.31;59.92;100993.34;5024719;28;20413;-82
2023/05/23 03:53:14;;;;;;;18.63;5.53;;;;;;;17.29;59.76;100980.16;5022549;28;20440;-81
2023/05/23 03:55:40;;;;;;;23.05;5.57;;;;;;;17.21;60.05;100988.41;5020570;28;20503;-82
2023/05/23 03:58:06;;;;;;;20.38;5.00;;;;;;;17.17;60.17;100998.69;5028422;28;20449;-83
2023/05/23 04:00:31;;;;;;;18.47;5.50;;;;;;;17.23;60.10;100991.69;5031396;28;21101;-82
2023/05/23 04:02:57;;;;;;;18.57;5.13;;;;;;;17.37;60.01;101005.91;5032628;28;20472;-82
2023/05/23 04:05:22;;;;;;;19.60;5.33;;;;;;;17.39;59.88;100995.81;5019743;28;20420;-82
2023/05/23 04:07:49;;;;;;;18.90;5.55;;;;;;;17.39;59.93;100998.47;5030336;28;20430;-82
2023/05/23 04:10:14;;;;;;;25.90;6.03;;;;;;;17.46;59.87;100999.28;5041981;28;20386;-82
2023/05/23 04:12:40;;;;;;;17.63;4.90;;;;;;;17.50;59.80;100992.50;5038932;28;20398;-82
2023/05/23 04:15:07;;;;;;;21.20;5.13;;;;;;;17.55;59.71;101002.59;5042997;28;20384;-83
2023/05/23 04:17:32;;;;;;;18.08;5.50;;;;;;;17.47;59.85;100992.91;5029832;28;20426;-82
2023/05/23 04:19:58;;;;;;;24.92;5.47;;;;;;;17.45;59.92;101000.34;5043915;28;21519;-82
2023/05/23 04:22:24;;;;;;;14.50;5.00;;;;;;;17.43;60.20;101005.09;5044171;28;20388;-82
2023/05/23 04:24:49;;;;;;;20.77;5.75;;;;;;;17.49;60.23;101001.56;5056727;28;21364;-82
2023/05/23 04:27:15;;;;;;;17.27;5.20;;;;;;;17.68;59.89;100997.22;5037911;28;20396;-83
2023/05/23 04:29:40;;;;;;;15.60;5.50;;;;;;;17.85;59.60;100997.59;5034227;28;20473;-81
2023/05/23 04:32:06;;;;;;;15.53;5.63;;;;;;;18.00;59.36;101004.56;5032075;28;20386;-82
2023/05/23 04:34:32;;;;;;;18.38;5.63;;;;;;;18.00;59.15;100991.97;5030458;28;20461;-82
2023/05/23 04:37:01;;;;;;;21.63;5.57;;;;;;;18.17;59.05;100997.69;5038202;28;20801;-82
2023/05/23 04:39:27;;;;;;;21.80;6.15;;;;;;;18.35;58.58;100999.69;5041341;28;20406;-82
2023/05/23 04:41:53;;;;;;;19.40;5.68;;;;;;;18.49;58.21;101003.94;5038995;28;20973;-82
2023/05/23 04:44:19;;;;;;;19.60;6.65;;;;;;;18.71;57.96;101001.72;5032507;28;20465;-82
2023/05/23 04:46:44;;;;;;;14.38;5.53;;;;;;;18.77;57.77;101002.72;5028406;28;20420;-83
2023/05/23 04:49:11;;;;;;;20.13;5.80;;;;;;;18.77;57.67;101002.72;5020489;28;20398;-83
2023/05/23 04:51:37;;;;;;;23.55;5.88;;;;;;;18.76;57.77;101003.75;5025224;28;20407;-83
2023/05/23 04:54:03;;;;;;;26.83;6.75;;;;;;;19.02;57.48;101004.63;5017801;28;20409;-83
2023/05/23 04:56:28;;;;;;;36.10;7.32;;;;;;;19.21;56.76;101025.16;5031436;28;20379;-83
2023/05/23 04:58:55;;;;;;;16.70;4.97;;;;;;;19.02;57.54;101015.38;5031716;28;20412;-82
2023/05/23 05:01:23;;;;;;;18.10;4.72;;;;;;;18.88;57.47;101018.16;5023551;28;20395;-83
2023/05/23 05:03:49;;;;;;;15.95;4.68;;;;;;;18.66;58.43;101023.03;5031909;28;20397;-83
2023/05/23 05:06:16;;;;;;;19.20;4.97;;;;;;;18.51;59.05;101026.00;5033489;28;20406;-83
2023/05/23 05:08:41;;;;;;;20.10;6.03;;;;;;;18.70;58.86;101026.09;5041864;28;20414;-83
2023/05/23 05:11:08;;;;;;;18.48;4.97;;;;;;;19.05;58.10;101028.38;5035398;28;20413;-82
2023/05/23 05:13:33;;;;;;;17.52;5.05;;;;;;;19.32;57.34;101022.78;5028670;28;20418;-81
2023/05/23 05:15:59;;;;;;;14.97;5.07;;;;;;;19.60;56.93;101014.25;5029267;28;20398;-81
2023/05/23 05:18:26;;;;;;;18.33;5.47;;;;;;;19.79;56.37;101015.09;5038727;28;20403;-82
2023/05/23 05:20:51;;;;;;;20.52;5.57;;;;;;;19.89;56.16;101009.22;5033189;28;20405;-82
2023/05/23 05:23:17;;;;;;;23.88;6.07;;;;;;;19.91;56.26;101012.50;5032858;28;20392;-82
2023/05/23 05:25:42;;;;;;;21.40;5.50;;;;;;;19.98;56.63;101022.13;5032034;28;20762;-82
2023/05/23 05:28:08;;;;;;;21.57;5.60;;;;;;;19.79;56.65;101015.94;5036000;28;20865;-82
2023/05/23 05:30:34;;;;;;;18.50;5.13;;;;;;;19.80;56.52;101022.94;5039596;28;20459;-82
2023/05/23 05:33:03;;;;;;;19.43;4.93;;;;;;;19.96;56.24;101024.22;5033614;28;20863;-81
2023/05/23 05:35:33;;;;;;;14.82;5.03;;;;;;;20.20;55.80;101019.81;5048243;28;20385;-83
2023/05/23 05:37:59;;;;;;;11.88;4.30;;;;;;;20.29;55.06;101022.97;5034531;28;20403;-85
2023/05/23 05:40:25;;;;;;;12.05;4.50;;;;;;;20.42;54.71;101022.81;5042187;28;20420;-82
2023/05/23 05:42:50;;;;;;;12.43;4.80;;;;;;;20.45;54.26;101018.84;5042654;28;20415;-83
2023/05/23 05:45:16;;;;;;;17.75;5.00;;;;;;;20.58;54.37;101025.91;5035552;28;20402;-83
2023/05/23 05:47:42;;;;;;;17.30;5.30;;;;;;;20.61;54.30;101020.91;5038167;28;20394;-85
2023/05/23 05:50:08;;;;;;;16.77;5.68;;;;;;;20.80;54.29;101024.38;5038212;28;20410;-83
2023/05/23 05:52:38;;;;;;;15.90;4.93;;;;;;;20.64;54.03;101021.53;5037842;28;20392;-82
2023/05/23 05:55:10;;;;;;;16.65;5.22;;;;;;;20.53;54.64;101029.31;5042557;28;20380;-82
2023/05/23 05:57:40;;;;;;;14.30;5.00;;;;;;;20.60;54.30;101032.72;5036515;28;20400;-82
2023/05/23 06:00:13;;;;;;;17.58;4.95;;;;;;;20.61;54.71;101025.50;5042825;28;20397;-83
2023/05/23 06:02:43;;;;;;;15.93;5.00;;;;;;;20.97;54.10;101021.84;5034401;28;20396;-85
2023/05/23 06:05:11;;;;;;;17.13;4.93;;;;;;;21.09;53.77;101015.66;5051443;28;20900;-82
2023/05/23 06:07:37;;;;;;;13.30;4.53;;;;;;;21.39;52.80;101029.03;5026153;28;20767;-82
2023/05/23 06:10:03;;;;;;;17.13;5.30;;;;;;;21.58;52.31;101016.28;5032409;28;20386;-83
2023/05/23 06:12:29;;;;;;;12.00;4.50;;;;;;;21.72;51.75;101016.88;5036870;28;20408;-83
2023/05/23 06:14:54;;;;;;;17.08;4.97;;;;;;;21.74;52.19;101018.25;5053328;28;20486;-81
2023/05/23 06:17:20;;;;;;;13.87;4.77;;;;;;;21.85;51.77;101013.91;5036745;28;20487;-82
2023/05/23 06:19:45;;;;;;;15.60;5.00;;;;;;;22.15;51.64;101008.31;5034230;28;20390;-82
2023/05/23 06:22:12;;;;;;;14.37;4.77;;;;;;;22.31;50.87;101000.53;5059449;28;20406;-82
2023/05/23 06:24:38;;;;;;;17.90;4.97;;;;;;;22.37;50.62;101010.38;5032035;28;20390;-82
2023/05/23 06:27:03;;;;;;;17.37;5.00;;;;;;;22.50;49.86;100996.56;5036655;28;20467;-82
2023/05/23 06:29:30;;;;;;;17.70;5.20;;;;;;;22.42;49.48;101006.94;5041526;28;20716;-82
2023/05/23 06:31:56;;;;;;;14.13;4.90;;;;;;;22.09;49.23;101006.56;5031723;28;20398;-82
2023/05/23 06:34:22;;;;;;;15.75;4.80;;;;;;;22.12;49.46;101002.56;5036612;28;20481;-82
2023/05/23 06:36:47;;;;;;;15.83;4.67;;;;;;;22.20;49.72;101004.06;5055158;28;20390;-83
2023/05/23 06:39:13;;;;;;;15.50;4.72;;;;;;;22.59;49.43;100996.16;5053876;28;20419;-82
2023/05/23 06:41:39;;;;;;;15.30;4.68;;;;;;;22.78;48.78;100997.59;5035322;28;20912;-84
2023/05/23 06:44:04;;;;;;;20.27;5.60;;;;;;;22.94;48.13;101014.06;5040343;28;20396;-83
2023/05/23 06:46:30;;;;;;;14.32;4.50;;;;;;;22.70;47.95;101004.19;5036901;28;20494;-83
2023/05/23 06:48:56;;;;;;;18.55;5.68;;;;;;;22.63;48.69;101003.53;5023306;28;20412;-82
2023/05/23 06:51:21;;;;;;;20.50;5.57;;;;;;;22.96;48.47;101004.66;5039635;28;20394;-82
2023/05/23 06:53:47;;;;;;;16.13;4.97;;;;;;;23.15;47.69;101005.22;5033409;28;20413;-86
2023/05/23 06:56:12;;;;;;;16.52;5.22;;;;;;;23.24;47.72;101000.22;5030847;28;20843;-84
2023/05/23 06:58:38;;;;;;;19.80;5.40;;;;;;;23.64;46.82;101007.28;5022245;28;20487;-82
2023/05/23 07:01:04;;;;;;;16.73;5.03;;;;;;;23.93;45.93;100994.44;5025044;28;20393;-83
2023/05/23 07:03:29;;;;;;;24.75;5.68;;;;;;;24.03;45.81;100986.41;5035290;28;20410;-81
2023/05/23 07:05:55;;;;;;;21.00;5.67;;;;;;;24.34;45.93;100994.88;5027757;28;20411;-82
2023/05/23 07:08:22;;;;;;;13.88;5.03;;;;;;;24.42;45.60;100982.78;5038926;28;20480;-83
2023/05/23 07:10:47;;;;;;;16.20;5.20;;;;;;;24.76;44.95;100988.00;5053052;28;20441;-83
2023/05/23 07:13:13;;;;;;;17.05;5.28;;;;;;;24.83;44.60;100979.63;5033985;28;20426;-83
2023/05/23 07:15:38;;;;;;;12.67;4.60;;;;;;;24.68;44.73;100978.44;5036318;28;20392;-82
2023/05/23 07:18:04;;;;;;;15.43;5.17;;;;;;;24.80;44.91;100983.69;5027334;28;20872;-82
2023/05/23 07:20:32;;;;;;;13.40;4.50;;;;;;;24.67;44.98;100978.69;5034673;28;20402;-82
2023/05/23 07:22:57;;;;;;;13.83;4.80;;;;;;;24.64;44.76;100977.31;5024055;28;20403;-82
2023/05/23 07:25:23;;;;;;;19.60;5.35;;;;;;;24.47;44.74;100973.88;5026361;28;20425;-83
2023/05/23 07:27:48;;;;;;;15.87;5.10;;;;;;;24.38;44.83;100968.09;5029710;28;20405;-82
2023/05/23 07:30:15;;;;;;;17.35;5.38;;;;;;;24.16;45.20;100973.56;5026868;28;20411;-83
2023/05/23 07:32:40;;;;;;;16.10;5.10;;;;;;;24.31;45.24;100968.31;5027206;28;20391;-82
2023/05/23 07:35:06;;;;;;;14.03;5.10;;;;;;;24.83;44.72;100966.91;5027974;28;20397;-82
2023/05/23 07:37:32;;;;;;;16.45;4.88;;;;;;;25.13;44.25;100960.06;5039180;28;20427;-82
2023/05/23 07:39:57;;;;;;;16.10;5.13;;;;;;;25.33;44.04;100962.91;5038344;28;20418;-82
2023/05/23 07:42:23;;;;;;;16.13;5.47;;;;;;;25.35;43.97;100965.38;5038198;28;20464;-83
2023/05/23 07:44:48;;;;;;;12.83;4.93;;;;;;;25.51;43.41;100960.84;5036218;28;20402;-82
2023/05/23 07:47:13;;;;;;;14.45;4.70;;;;;;;25.64;42.42;100957.66;5031027;28;20398;-82
2023/05/23 07:49:39;;;;;;;17.60;4.77;;;;;;;25.68;42.62;100958.75;5041839;28;20383;-80
2023/05/23 07:52:05;;;;;;;16.07;4.70;;;;;;;25.83;42.39;100959.91;5033775;28;20477;-82
2023/05/23 07:54:32;;;;;;;13.82;4.43;;;;;;;25.82;42.26;100952.81;5033827;28;20879;-83
2023/05/23 07:56:57;;;;;;;17.33;4.65;;;;;;;25.96;41.95;100958.63;5032165;28;20417;-82
2023/05/23 07:59:23;;;;;;;15.57;4.70;;;;;;;25.99;41.58;100955.38;5035397;28;20390;-83
2023/05/23 08:01:49;;;;;;;17.13;4.83;;;;;;;25.97;41.62;100958.34;5036565;28;20845;-83
2023/05/23 08:04:16;;;;;;;16.07;5.17;;;;;;;25.68;41.57;100953.34;5034951;28;20473;-83
2023/05/23 08:06:46;;;;;;;13.88;4.82;;;;;;;25.66;42.08;100965.53;5028323;28;20417;-81
2023/05/23 08:09:12;;;;;;;20.65;5.70;;;;;;;26.03;41.42;100949.13;5030717;28;20788;-81
2023/05/23 08:11:37;;;;;;;17.63;5.25;;;;;;;26.20;40.56;100948.06;5038210;28;20402;-81
2023/05/23 08:14:03;;;;;;;14.30;4.20;;;;;;;26.28;39.71;100942.91;5031720;28;20849;-82
2023/05/23 08:16:28;;;;;;;16.73;4.33;;;;;;;26.42;38.93;100948.66;5033313;28;20401;-81
2023/05/23 08:18:54;;;;;;;13.55;4.15;;;;;;;26.36;38.50;100948.91;5034994;28;20378;-86
2023/05/23 08:21:19;;;;;;;17.57;4.90;;;;;;;26.35;38.23;100950.00;5035026;28;20500;-81
2023/05/23 08:23:45;;;;;;;12.53;4.00;;;;;;;26.36;37.79;100949.72;5033552;28;20937;-81
2023/05/23 08:26:13;;;;;;;12.73;3.67;;;;;;;26.44;37.81;100943.75;5032461;28;20409;-83
2023/05/23 08:28:38;;;;;;;12.43;4.00;;;;;;;26.48;37.44;100941.31;5029909;28;20424;-81
2023/05/23 08:31:06;;;;;;;13.70;4.00;;;;;;;26.42;37.09;100945.13;5032696;28;20493;-82
2023/05/23 08:33:31;;;;;;;17.10;4.10;;;;;;;26.52;37.51;100934.25;5033653;28;20469;-81
2023/05/23 08:35:57;;;;;;;15.97;4.27;;;;;;;26.62;37.64;100939.72;5034913;28;20452;-83
2023/05/23 08:38:23;;;;;;;13.23;3.70;;;;;;;26.63;36.99;100940.53;5034105;28;20397;-82
2023/05/23 08:40:51;;;;;;;13.25;3.70;;;;;;;26.44;36.81;100941.03;5033350;28;20623;-82
2023/05/23 08:43:17;;;;;;;16.40;4.80;;;;;;;26.44;37.35;100934.78;5029194;28;20380;-83
2023/05/23 08:45:43;;;;;;;16.27;4.25;;;;;;;26.48;36.85;100938.59;5028644;28;20500;-82
2023/05/23 08:48:12;;;;;;;17.30;4.30;;;;;;;26.60;37.28;100933.72;5026819;28;20474;-81
2023/05/23 08:50:40;;;;;;;16.70;4.10;;;;;;;26.49;37.30;100930.19;5031714;28;20386;-82
2023/05/23 08:53:08;;;;;;;17.92;4.47;;;;;;;26.54;36.97;100929.34;5036485;28;20936;-81
2023/05/23 08:55:36;;;;;;;14.73;4.10;;;;;;;26.63;37.19;100929.66;5044297;28;20913;-80
2023/05/23 08:58:05;;;;;;;19.35;4.32;;;;;;;26.78;37.37;100926.94;5031451;28;20493;-81
2023/05/23 09:00:33;;;;;;;18.02;4.25;;;;;;;26.89;37.14;100933.97;5044666;28;20772;-80
2023/05/23 09:02:59;;;;;;;15.30;4.00;;;;;;;26.88;36.69;100924.22;5039334;28;20406;-80
2023/05/23 09:05:26;;;;;;;15.55;3.88;;;;;;;26.90;37.20;100913.03;5035817;28;20402;-80
2023/05/23 09:07:52;;;;;;;18.63;4.82;;;;;;;26.95;37.22;100917.66;5035320;28;20392;-80
2023/05/23 09:10:20;;;;;;;17.38;4.53;;;;;;;26.98;37.12;100917.13;5029555;28;20398;-79
2023/05/23 09:12:46;;;;;;;9.07;3.55;;;;;;;26.99;36.99;100918.72;5046305;28;20432;-80
2023/05/23 09:15:12;;;;;;;9.93;3.78;;;;;;;27.12;37.28;100920.06;5044472;28;20400;-81
2023/05/23 09:17:38;;;;;;;5.17;3.27;;;;;;;27.22;37.17;100922.75;5057421;28;20398;-83
2023/05/23 09:20:13;;;;;;;7.70;4.40;;;;;;;27.20;37.83;100914.06;5049354;28;20386;-83
2023/05/23 09:22:39;;;;;;;5.60;3.47;;;;;;;27.30;37.50;100924.13;5044588;28;20421;-84
2023/05/23 09:25:05;;;;;;;5.03;3.65;;;;;;;27.29;37.17;100900.72;5037829;28;20910;-84
2023/05/23 09:27:31;;;;;;;8.03;4.07;;;;;;;27.37;36.63;100914.59;5055769;28;20414;-82
2023/05/23 09:29:56;;;;;;;8.23;3.72;;;;;;;27.40;36.07;100902.31;5039868;28;20399;-80
2023/05/23 09:32:22;;;;;;;15.53;5.20;;;;;;;27.44;36.40;100908.81;5048123;28;20396;-80
2023/05/23 09:34:59;;;;;;;16.43;4.70;;;;;;;27.55;36.49;100904.16;5026380;28;20937;-79
2023/05/23 09:37:45;;;;;;;13.95;4.50;;;;;;;27.70;36.15;100903.28;5016786;28;20398;-79
2023/05/23 09:40:13;;;;;;;17.55;4.78;;;;;;;27.70;35.53;100897.84;5013291;28;20482;-79
2023/05/23 09:42:43;;;;;;;15.10;4.50;;;;;;;27.74;35.66;100894.25;5018995;28;20497;-80
2023/05/23 09:45:09;;;;;;;10.55;4.13;;;;;;;27.89;36.04;100898.78;5016003;28;20420;-79
2023/05/23 09:47:35;;;;;;;20.80;5.28;;;;;;;27.95;35.70;100894.97;5010197;28;20833;-80
2023/05/23 09:50:00;;;;;;;16.23;4.63;;;;;;;27.76;35.08;100893.97;5012766;28;20874;-80
2023/05/23 09:52:26;;;;;;;20.03;5.53;;;;;;;27.70;35.48;100890.47;5016991;28;20918;-80
2023/05/23 09:54:53;;;;;;;22.33;5.70;;;;;;;27.80;35.57;100884.13;5018117;28;20396;-80
2023/05/23 09:57:21;;;;;;;21.27;4.97;;;;;;;27.95;35.35;100891.44;5042503;28;20449;-79
2023/05/23 09:59:57;;;;;;;17.92;4.85;;;;;;;28.00;35.38;100884.06;5029700;28;21057;-80
2023/05/23 10:02:48;;;;;;;23.40;5.20;;;;;;;27.97;35.32;100875.63;5029702;28;20426;-79
2023/05/23 10:05:32;;;;;;;25.75;5.75;;;;;;;27.95;35.65;100870.47;5019153;28;20905;-79
2023/05/23 10:08:00;;;;;;;19.57;4.60;;;;;;;28.05;34.98;100871.47;5016429;28;20386;-81
2023/05/23 10:10:31;;;;;;;17.58;4.15;;;;;;;28.07;33.38;100872.81;5032077;28;20393;-80
2023/05/23 10:12:59;;;;;;;16.43;4.17;;;;;;;28.15;33.61;100858.59;5031086;28;20403;-78
2023/05/23 10:15:29;;;;;;;16.35;4.30;;;;;;;28.13;32.77;100868.97;5033318;28;20390;-81
2023/05/23 10:18:08;;;;;;;19.87;5.07;;;;;;;28.22;33.70;100858.28;5031737;28;20375;-78
2023/05/23 10:20:38;;;;;;;16.63;4.30;;;;;;;28.36;32.82;100853.78;5036137;28;20480;-79
2023/05/23 10:23:04;;;;;;;19.40;4.30;;;;;;;28.33;32.67;100846.19;5021948;28;20386;-80
2023/05/23 10:25:30;;;;;;;17.10;4.10;;;;;;;28.35;32.67;100843.16;5036429;28;20416;-80
2023/05/23 10:28:00;;;;;;;17.60;4.20;;;;;;;28.36;32.89;100845.63;5036969;28;20406;-78
2023/05/23 10:30:27;;;;;;;16.10;4.15;;;;;;;28.35;32.14;100845.91;5043390;28;20385;-80
2023/05/23 10:32:54;;;;;;;16.85;4.00;;;;;;;28.47;31.82;100838.16;5033684;28;20454;-79
2023/05/23 10:35:39;;;;;;;17.70;4.10;;;;;;;28.50;31.44;100831.31;5031405;28;20375;-80
2023/05/23 10:38:32;;;;;;;14.73;4.30;;;;;;;28.73;31.34;100829.75;5031319;28;20393;-79
2023/05/23 10:41:23;;;;;;;16.33;4.40;;;;;;;28.84;31.49;100824.97;5031925;28;20378;-79
2023/05/23 10:44:01;;;;;;;15.98;4.40;;;;;;;28.78;31.38;100819.56;5032146;28;20379;-79
2023/05/23 10:46:50;;;;;;;14.18;3.88;;;;;;;28.80;31.14;100824.75;5032368;28;20409;-80
2023/05/23 10:49:16;;;;;;;14.68;4.10;;;;;;;28.72;30.85;100831.66;5036254;28;20421;-80
2023/05/23 10:51:41;;;;;;;14.77;3.57;;;;;;;28.79;30.95;100814.94;5037563;28;20821;-81
2023/05/23 10:54:11;;;;;;;17.52;4.40;;;;;;;28.75;30.71;100820.16;5042305;28;21215;-79
2023/05/23 10:56:36;;;;;;;22.20;4.43;;;;;;;28.75;30.70;100817.41;5043915;28;20878;-81
2023/05/23 10:59:05;;;;;;;12.50;3.67;;;;;;;28.73;30.20;100814.16;5042170;28;20414;-81
2023/05/23 11:01:31;;;;;;;12.60;3.67;;;;;;;28.65;30.30;100809.38;5037721;28;20902;-82
2023/05/23 11:03:56;;;;;;;17.05;3.80;;;;;;;28.63;30.00;100810.75;5036218;28;20458;-80
2023/05/23 11:06:43;;;;;;;21.20;4.40;;;;;;;28.60;29.84;100802.03;5060634;28;20413;-79
2023/05/23 11:09:20;;;;;;;12.65;3.80;;;;;;;28.78;29.52;100818.78;5035564;28;20491;-81
2023/05/23 11:12:01;;;;;;;9.73;3.40;;;;;;;28.95;29.48;100812.84;5035887;28;20466;-80
2023/05/23 11:14:37;;;;;;;14.70;4.50;;;;;;;29.02;29.34;100801.56;5038871;28;20414;-81
2023/05/23 11:17:11;;;;;;;16.70;4.53;;;;;;;28.95;29.76;100797.28;5033199;28;20753;-80